Time;durP1;ratioP1;P1;durP2;ratioP2;P2;SDS_P1;SDS_P2;PMS_P1;PMS_P2;Temp;Humidity;BMP_temperature;BMP_pressure;BME280_temperature;BME280_humidity;BME280_pressure;Samples;Min_cycle;Max_cycle;Signal;HPM_P1;HPM_P2
2023/06/02 00:01:05;;;;;;;;;3.67;3.33;;;;;20.49;58.16;101621.09;5080910;27;45454;-79
2023/06/02 00:03:33;;;;;;;;;6.33;5.33;;;;;20.45;57.87;101618.44;5099605;27;53264;-79
2023/06/02 00:06:05;;;;;;;;;6.00;5.00;;;;;20.42;58.59;101625.66;5097915;27;45373;-77
2023/06/02 00:08:32;;;;;;;;;8.67;4.33;;;;;20.42;58.33;101622.09;5094235;27;45288;-79
2023/06/02 00:11:01;;;;;;;;;6.33;4.67;;;;;20.38;58.91;101631.09;5096372;27;45343;-77
2023/06/02 00:13:26;;;;;;;;;5.67;5.33;;;;;20.33;58.78;101615.06;5079388;27;46437;-76
2023/06/02 00:15:52;;;;;;;;;5.00;4.33;;;;;20.25;59.67;101621.50;5088785;27;45588;-77
2023/06/02 00:18:20;;;;;;;;;5.67;4.67;;;;;20.15;59.74;101620.75;5093089;27;45492;-76
2023/06/02 00:20:46;;;;;;;;;6.67;6.67;;;;;20.10;59.78;101625.31;5093784;27;45426;-76
2023/06/02 00:23:12;;;;;;;;;7.00;5.33;;;;;20.08;59.97;101621.75;5089394;27;46744;-78
2023/06/02 00:25:39;;;;;;;;;4.00;4.00;;;;;20.06;59.57;101624.44;5087126;27;45540;-77
2023/06/02 00:28:04;;;;;;;;;10.33;5.33;;;;;20.04;59.92;101623.59;5094556;27;45291;-78
2023/06/02 00:30:30;;;;;;;;;6.33;5.33;;;;;19.99;60.74;101622.78;5089912;27;45687;-77
2023/06/02 00:32:55;;;;;;;;;8.00;5.67;;;;;19.94;60.12;101629.13;5079194;27;46637;-76
2023/06/02 00:35:21;;;;;;;;;6.00;6.00;;;;;19.94;60.26;101629.13;5085392;27;45300;-79
2023/06/02 00:37:46;;;;;;;;;7.00;7.00;;;;;19.91;60.40;101635.41;5085653;27;52175;-80
2023/06/02 00:40:12;;;;;;;;;9.00;6.67;;;;;19.89;60.67;101642.59;5085948;27;45290;-77
2023/06/02 00:42:38;;;;;;;;;9.67;9.00;;;;;19.86;60.58;101640.81;5098621;27;47456;-77
2023/06/02 00:45:03;;;;;;;;;9.33;6.33;;;;;19.79;61.20;101636.47;5084946;27;59935;-78
2023/06/02 00:47:29;;;;;;;;;10.00;9.00;;;;;19.72;62.32;101631.22;5092116;27;45357;-77
2023/06/02 00:49:55;;;;;;;;;8.33;8.33;;;;;19.68;62.26;101629.50;5097682;27;45326;-76
2023/06/02 00:52:20;;;;;;;;;9.00;6.33;;;;;19.62;62.01;101633.16;5077406;27;47503;-78
2023/06/02 00:54:46;;;;;;;;;11.33;9.00;;;;;19.55;62.61;101621.59;5083007;27;64770;-78
2023/06/02 00:57:11;;;;;;;;;14.00;11.00;;;;;19.55;62.71;101626.06;5095799;27;45256;-78
2023/06/02 00:59:37;;;;;;;;;10.33;10.33;;;;;19.53;62.46;101631.44;5082477;27;56294;-81
2023/06/02 01:02:02;;;;;;;;;12.00;11.00;;;;;19.51;63.10;101632.38;5085395;27;47543;-77
2023/06/02 01:04:30;;;;;;;;;10.67;8.00;;;;;19.46;63.29;101634.22;5077927;27;45490;-81
2023/06/02 01:07:00;;;;;;;;;12.00;12.00;;;;;19.46;63.35;101652.97;5070099;28;45476;-78
2023/06/02 01:09:27;;;;;;;;;12.33;12.33;;;;;19.43;63.60;101648.53;5064107;27;45575;-80
2023/06/02 01:11:52;;;;;;;;;10.67;10.67;;;;;19.43;63.08;101651.22;5079104;27;70484;-77
2023/06/02 01:14:18;;;;;;;;;11.67;10.67;;;;;19.40;63.85;101640.56;5079791;27;45570;-80
2023/06/02 01:16:44;;;;;;;;;13.67;12.67;;;;;19.40;63.67;101640.56;5079617;27;57069;-80
2023/06/02 01:19:14;;;;;;;;;16.00;11.33;;;;;19.43;63.64;101632.47;5094045;27;45385;-79
2023/06/02 01:21:44;;;;;;;;;14.00;11.00;;;;;19.44;64.14;101631.56;5097102;27;45724;-78
2023/06/02 01:24:09;;;;;;;;;14.00;12.33;;;;;19.45;63.65;101635.13;5077803;27;45625;-79
2023/06/02 01:26:35;;;;;;;;;13.67;10.33;;;;;19.42;64.38;101644.09;5078710;27;63285;-80
2023/06/02 01:29:02;;;;;;;;;12.33;12.00;;;;;19.40;64.34;101639.66;5075376;28;45401;-80
2023/06/02 01:31:31;;;;;;;;;12.33;12.33;;;;;19.38;64.48;101645.03;5086066;27;46686;-79
2023/06/02 01:34:02;;;;;;;;;12.67;12.33;;;;;19.38;64.18;101637.88;5085159;27;45471;-79
2023/06/02 01:36:29;;;;;;;;;15.00;11.00;;;;;19.35;64.57;101637.94;5083548;27;45398;-82
2023/06/02 01:38:56;;;;;;;;;14.00;12.00;;;;;19.35;64.58;101629.00;5074354;28;45500;-79
2023/06/02 01:41:23;;;;;;;;;12.00;12.00;;;;;19.34;64.68;101637.94;5061637;28;47565;-81
2023/06/02 01:43:49;;;;;;;;;12.75;12.75;;;;;19.33;65.54;101631.72;5090024;27;45331;-80
2023/06/02 01:46:16;;;;;;;;;15.00;12.33;;;;;19.25;65.85;101630.03;5090390;27;45373;-82
2023/06/02 01:48:41;;;;;;;;;13.25;13.00;;;;;19.16;65.19;101638.16;5077762;27;45289;-79
2023/06/02 01:51:06;;;;;;;;;16.00;13.00;;;;;19.10;65.77;101636.44;5076464;27;61166;-79
2023/06/02 01:53:32;;;;;;;;;13.25;12.75;;;;;19.07;66.06;101633.81;5073378;27;67055;-79
2023/06/02 01:55:58;;;;;;;;;11.33;11.00;;;;;19.03;65.87;101627.59;5091632;27;59356;-80
2023/06/02 01:58:24;;;;;;;;;15.75;12.50;;;;;19.07;65.60;101640.06;5084370;27;45601;-80
2023/06/02 02:00:49;;;;;;;;;14.25;14.25;;;;;19.07;65.67;101632.03;5091474;27;46492;-79
2023/06/02 02:03:14;;;;;;;;;12.50;11.75;;;;;19.01;66.39;101629.38;5092426;27;45384;-78
2023/06/02 02:05:40;;;;;;;;;13.75;13.00;;;;;18.98;65.97;101628.56;5094184;27;63489;-79
2023/06/02 02:08:05;;;;;;;;;15.67;13.33;;;;;18.99;66.19;101633.88;5090209;27;63573;-79
2023/06/02 02:10:30;;;;;;;;;15.25;14.00;;;;;19.02;66.69;101638.34;5092314;27;50441;-79
2023/06/02 02:12:56;;;;;;;;;19.00;15.25;;;;;19.03;66.64;101635.63;5077956;27;64224;-79
2023/06/02 02:15:22;;;;;;;;;16.75;12.75;;;;;19.06;66.74;101640.03;5096499;27;61176;-78
2023/06/02 02:17:47;;;;;;;;;14.00;12.75;;;;;19.07;66.34;101634.69;5080054;27;45473;-80
2023/06/02 02:20:16;;;;;;;;;13.25;11.75;;;;;19.11;66.68;101644.44;5069356;27;45744;-80
2023/06/02 02:22:41;;;;;;;;;14.00;12.67;;;;;19.05;66.55;101636.47;5091616;27;45540;-79
2023/06/02 02:25:07;;;;;;;;;14.33;13.67;;;;;19.00;66.37;101638.31;5086606;27;45573;-78
2023/06/02 02:27:32;;;;;;;;;13.75;13.75;;;;;18.99;66.65;101643.69;5079274;27;45377;-80
2023/06/02 02:29:58;;;;;;;;;14.67;12.67;;;;;18.97;66.34;101632.13;5095957;27;70852;-79
2023/06/02 02:32:23;;;;;;;;;15.67;11.67;;;;;18.94;66.68;101632.16;5093760;27;45497;-80
2023/06/02 02:34:49;;;;;;;;;15.33;13.00;;;;;18.89;66.36;101634.00;5094643;27;45623;-79
2023/06/02 02:37:16;;;;;;;;;17.33;13.33;;;;;18.87;66.59;101643.84;5093096;27;45279;-80
2023/06/02 02:39:41;;;;;;;;;15.67;12.33;;;;;18.80;67.05;101653.69;5092627;27;47577;-78
2023/06/02 02:42:07;;;;;;;;;16.50;13.00;;;;;18.74;66.62;101641.25;5068756;28;45445;-77
2023/06/02 02:44:32;;;;;;;;;11.67;11.67;;;;;18.72;66.96;101643.09;5088712;27;45319;-78
2023/06/02 02:47:01;;;;;;;;;17.25;14.25;;;;;18.67;66.96;101649.34;5085723;27;45384;-78
2023/06/02 02:49:27;;;;;;;;;14.75;13.00;;;;;18.61;67.23;101652.97;5085057;27;45957;-80
2023/06/02 02:51:52;;;;;;;;;13.00;10.75;;;;;18.54;66.96;101645.91;5082585;27;45354;-81
2023/06/02 02:54:17;;;;;;;;;15.25;13.00;;;;;18.45;67.57;101648.66;5081150;27;45311;-81
2023/06/02 02:56:43;;;;;;;;;15.00;14.00;;;;;18.38;67.30;101647.81;5090873;27;45306;-81
2023/06/02 02:59:09;;;;;;;;;13.00;12.00;;;;;18.34;67.43;101646.06;5080694;27;47873;-78
2023/06/02 03:01:35;;;;;;;;;15.75;12.75;;;;;18.32;67.70;101650.53;5076725;27;45428;-79
2023/06/02 03:04:01;;;;;;;;;16.25;11.25;;;;;18.26;67.69;101658.59;5094237;27;45323;-79
2023/06/02 03:06:31;;;;;;;;;13.75;13.00;;;;;18.17;68.02;101656.88;5097037;27;45437;-78
2023/06/02 03:08:58;;;;;;;;;14.50;13.25;;;;;18.09;68.56;101653.38;5087287;27;45661;-79
2023/06/02 03:11:23;;;;;;;;;15.75;13.00;;;;;18.01;68.42;101657.91;5092162;27;45408;-81
2023/06/02 03:13:48;;;;;;;;;15.75;12.75;;;;;17.99;68.58;101657.00;5079328;27;59772;-80
2023/06/02 03:16:14;;;;;;;;;14.25;12.50;;;;;17.97;68.76;101658.81;5089101;27;60375;-78
2023/06/02 03:18:39;;;;;;;;;16.00;14.50;;;;;17.96;69.02;101665.06;5088612;27;47874;-78
2023/06/02 03:21:06;;;;;;;;;19.50;14.75;;;;;17.91;68.91;101665.06;5092912;27;45360;-79
2023/06/02 03:23:31;;;;;;;;;14.00;12.75;;;;;17.88;68.40;101669.53;5081840;27;45367;-80
2023/06/02 03:25:57;;;;;;;;;16.50;13.00;;;;;17.82;68.52;101658.88;5068996;28;45481;-81
2023/06/02 03:28:22;;;;;;;;;13.00;13.00;;;;;17.76;68.42;101663.38;5084396;27;63560;-79
2023/06/02 03:30:47;;;;;;;;;15.25;14.00;;;;;17.77;68.70;101669.59;5078154;27;70326;-80
2023/06/02 03:33:13;;;;;;;;;18.25;14.00;;;;;17.73;69.17;101670.50;5099995;27;47280;-78
2023/06/02 03:35:38;;;;;;;;;18.00;14.00;;;;;17.70;68.86;101671.38;5095221;27;57074;-81
2023/06/02 03:38:05;;;;;;;;;21.25;14.00;;;;;17.66;69.47;101669.63;5094057;27;54731;-78
2023/06/02 03:40:31;;;;;;;;;19.75;13.00;;;;;17.63;69.19;101674.06;5093413;27;45478;-79
2023/06/02 03:42:56;;;;;;;;;16.25;14.00;;;;;17.62;69.53;101680.31;5090443;27;45398;-78
2023/06/02 03:45:21;;;;;;;;;16.00;15.25;;;;;17.58;69.73;101683.88;5095086;27;45491;-79
2023/06/02 03:47:47;;;;;;;;;14.75;12.25;;;;;17.57;70.34;101672.31;5085124;27;67735;-80
2023/06/02 03:50:12;;;;;;;;;15.00;15.00;;;;;17.52;69.96;101668.78;5084156;27;66980;-78
2023/06/02 03:52:37;;;;;;;;;16.50;15.50;;;;;17.49;70.14;101669.69;5081708;27;63015;-79
2023/06/02 03:55:03;;;;;;;;;19.50;17.75;;;;;17.46;71.33;101671.47;5093442;27;61755;-78
2023/06/02 03:57:29;;;;;;;;;17.00;15.00;;;;;17.41;70.91;101673.28;5092432;27;45445;-80
2023/06/02 03:59:54;;;;;;;;;18.00;14.75;;;;;17.44;70.55;101671.50;5083898;27;45492;-80
2023/06/02 04:02:19;;;;;;;;;19.00;15.50;;;;;17.47;70.98;101674.16;5079227;27;45824;-78
2023/06/02 04:04:45;;;;;;;;;20.50;17.25;;;;;17.47;70.82;101670.59;5090369;27;47172;-79
2023/06/02 04:07:10;;;;;;;;;20.25;18.75;;;;;17.46;70.84;101674.16;5076370;27;47448;-79
2023/06/02 04:09:36;;;;;;;;;21.00;14.75;;;;;17.52;71.16;101676.78;5095903;27;45433;-79
2023/06/02 04:12:01;;;;;;;;;20.00;18.25;;;;;17.51;70.99;101672.34;5088686;27;62796;-79
2023/06/02 04:14:27;;;;;;;;;20.25;15.00;;;;;17.50;70.68;101679.47;5092211;27;53407;-78
2023/06/02 04:16:53;;;;;;;;;15.00;13.75;;;;;17.52;71.03;101679.47;5099570;27;47838;-80
2023/06/02 04:19:18;;;;;;;;;16.50;16.50;;;;;17.54;71.13;101677.69;5084494;27;45219;-79
2023/06/02 04:21:44;;;;;;;;;20.00;17.50;;;;;17.55;70.99;101674.13;5080382;27;45515;-78
2023/06/02 04:24:09;;;;;;;;;26.75;20.25;;;;;17.54;71.25;101672.34;5085442;27;58825;-78
2023/06/02 04:26:34;;;;;;;;;18.25;16.50;;;;;17.59;71.17;101677.69;5078662;27;71324;-80
2023/06/02 04:29:00;;;;;;;;;19.50;16.50;;;;;17.60;70.92;101682.13;5094562;27;66504;-80
2023/06/02 04:31:45;;;;;;;;;18.50;17.75;;;;;17.61;70.79;101676.75;5098117;27;61243;-80
2023/06/02 04:34:12;;;;;;;;;21.25;20.00;;;;;17.66;70.80;101688.31;5097134;27;45301;-77
2023/06/02 04:36:37;;;;;;;;;22.00;17.25;;;;;17.66;70.33;101682.97;5063970;27;48540;-77
2023/06/02 04:39:05;;;;;;;;;17.25;17.25;;;;;17.65;69.92;101689.22;5093576;27;45358;-78
2023/06/02 04:41:31;;;;;;;;;23.25;18.25;;;;;17.62;69.75;101678.53;5099107;27;45477;-81
2023/06/02 04:44:00;;;;;;;;;20.00;17.50;;;;;17.61;70.23;101678.56;5096695;27;45637;-77
2023/06/02 04:46:26;;;;;;;;;18.50;17.00;;;;;17.61;69.84;101695.47;5087689;27;46968;-78
2023/06/02 04:48:52;;;;;;;;;22.75;16.25;;;;;17.64;69.99;101697.25;5093931;27;45441;-77
2023/06/02 04:51:18;;;;;;;;;14.00;13.50;;;;;17.65;70.08;101696.34;5089421;27;45626;-79
2023/06/02 04:53:44;;;;;;;;;20.25;16.75;;;;;17.69;70.12;101699.00;5086684;27;45424;-78
2023/06/02 04:56:09;;;;;;;;;18.25;16.75;;;;;17.69;70.25;101688.31;5086320;27;46385;-79
2023/06/02 04:58:34;;;;;;;;;21.25;15.00;;;;;17.70;70.27;101684.75;5084218;27;51673;-74
2023/06/02 05:01:01;;;;;;;;;19.00;18.25;;;;;17.70;70.15;101687.41;5088941;27;45425;-78
2023/06/02 05:03:26;;;;;;;;;28.25;26.75;;;;;17.70;70.47;101679.41;5097762;27;45535;-76
2023/06/02 05:05:52;;;;;;;;;26.75;22.50;;;;;17.70;70.20;101682.06;5090372;27;46488;-75
2023/06/02 05:08:17;;;;;;;;;24.00;21.75;;;;;17.70;69.91;101690.09;5088201;27;45434;-80
2023/06/02 05:10:43;;;;;;;;;27.25;24.25;;;;;17.72;69.63;101695.41;5096983;27;45571;-78
2023/06/02 05:13:08;;;;;;;;;32.00;27.00;;;;;17.73;69.44;101684.75;5065935;28;59512;-77
2023/06/02 05:15:33;;;;;;;;;26.50;21.00;;;;;17.73;69.41;101700.78;5092004;27;46172;-78
2023/06/02 05:17:59;;;;;;;;;25.75;24.00;;;;;17.75;69.28;101693.66;5089401;27;64276;-77
2023/06/02 05:20:24;;;;;;;;;24.00;21.50;;;;;17.77;69.04;101697.19;5092788;27;45460;-77
2023/06/02 05:22:49;;;;;;;;;29.50;22.75;;;;;17.80;68.88;101713.22;5083980;27;45652;-78
2023/06/02 05:25:15;;;;;;;;;28.50;23.75;;;;;17.83;68.99;101701.63;5087296;27;70911;-77
2023/06/02 05:27:40;;;;;;;;;27.25;25.25;;;;;17.88;68.63;101702.47;5091195;27;52077;-79
2023/06/02 05:30:06;;;;;;;;;32.75;27.50;;;;;17.89;68.84;101706.03;5096137;27;63005;-77
2023/06/02 05:32:32;;;;;;;;;27.00;26.00;;;;;17.89;68.55;101703.38;5066546;27;45525;-76
2023/06/02 05:34:57;;;;;;;;;25.00;19.00;;;;;17.89;68.36;101703.38;5092237;27;64867;-77
2023/06/02 05:37:22;;;;;;;;;30.50;25.00;;;;;17.89;68.31;101695.34;5095311;27;46721;-78
2023/06/02 05:39:48;;;;;;;;;25.75;25.50;;;;;17.90;68.79;101691.81;5092572;27;56934;-79
2023/06/02 05:42:13;;;;;;;;;28.75;24.50;;;;;17.91;68.78;101690.91;5093769;27;45476;-78
2023/06/02 05:44:39;;;;;;;;;28.75;25.50;;;;;17.89;68.61;101695.34;5089526;27;46326;-79
2023/06/02 05:47:05;;;;;;;;;26.50;23.25;;;;;17.89;68.71;101690.00;5089538;27;66316;-78
2023/06/02 05:49:30;;;;;;;;;30.75;25.25;;;;;17.91;68.47;101688.25;5083355;27;45417;-76
2023/06/02 05:51:55;;;;;;;;;28.75;25.00;;;;;17.96;68.57;101687.31;5088929;27;58072;-77
2023/06/02 05:54:21;;;;;;;;;24.00;23.25;;;;;18.00;68.19;101683.75;5094798;27;45585;-79
2023/06/02 05:56:46;;;;;;;;;31.75;25.25;;;;;17.99;68.79;101687.28;5086572;27;63084;-78
2023/06/02 05:59:11;;;;;;;;;27.75;26.50;;;;;17.91;69.17;101682.91;5091785;27;63652;-78
2023/06/02 06:01:37;;;;;;;;;31.75;27.00;;;;;17.79;69.24;101674.06;5086820;27;45385;-77
2023/06/02 06:04:02;;;;;;;;;24.50;23.00;;;;;17.71;69.41;101677.63;5090448;27;46397;-80
2023/06/02 06:06:28;;;;;;;;;28.25;25.50;;;;;17.66;70.09;101687.44;5089389;27;45319;-77
2023/06/02 06:08:53;;;;;;;;;32.25;29.75;;;;;17.61;70.08;101684.78;5082846;27;45269;-77
2023/06/02 06:11:19;;;;;;;;;27.00;26.50;;;;;17.58;70.36;101686.56;5087177;27;62902;-77
2023/06/02 06:13:44;;;;;;;;;27.75;24.00;;;;;17.51;70.55;101688.38;5090500;27;46434;-77
2023/06/02 06:16:10;;;;;;;;;23.00;21.00;;;;;17.49;71.94;101688.38;5094549;27;45479;-78
2023/06/02 06:18:36;;;;;;;;;30.75;26.00;;;;;17.45;71.21;101693.75;5094698;27;45348;-79
2023/06/02 06:21:01;;;;;;;;;23.50;23.00;;;;;17.47;70.91;101705.28;5069866;27;45536;-76
2023/06/02 06:23:28;;;;;;;;;28.50;26.00;;;;;17.46;70.65;101698.19;5090914;27;47346;-77
2023/06/02 06:25:53;;;;;;;;;26.75;22.25;;;;;17.47;70.51;101697.28;5094119;27;45421;-76
2023/06/02 06:28:19;;;;;;;;;31.75;24.00;;;;;17.50;70.64;101697.28;5059849;27;49822;-76
2023/06/02 06:30:45;;;;;;;;;27.75;23.25;;;;;17.52;70.62;101695.47;5090254;27;60254;-77
2023/06/02 06:33:10;;;;;;;;;29.50;24.75;;;;;17.49;70.49;101693.72;5096915;27;47380;-78
2023/06/02 06:35:36;;;;;;;;;28.50;26.25;;;;;17.52;70.46;101691.06;5087497;27;45502;-76
2023/06/02 06:38:01;;;;;;;;;24.00;19.50;;;;;17.54;71.07;101696.38;5087276;27;45726;-77
2023/06/02 06:40:27;;;;;;;;;26.50;23.75;;;;;17.62;70.78;101691.88;5091263;27;45474;-78
2023/06/02 06:42:52;;;;;;;;;28.75;28.50;;;;;17.67;71.25;101703.44;5090127;27;46052;-76
2023/06/02 06:45:17;;;;;;;;;28.25;25.75;;;;;17.70;71.21;101700.78;5088150;27;45484;-77
2023/06/02 06:47:43;;;;;;;;;25.25;21.50;;;;;17.75;70.64;101696.31;5073318;27;61457;-76
2023/06/02 06:50:08;;;;;;;;;33.50;23.50;;;;;17.83;70.25;101696.28;5090497;27;59122;-76
2023/06/02 06:52:33;;;;;;;;;29.25;24.00;;;;;17.93;70.48;101702.47;5091171;27;47599;-77
2023/06/02 06:54:59;;;;;;;;;26.50;23.50;;;;;18.07;70.23;101700.63;5089765;27;45446;-77
2023/06/02 06:57:24;;;;;;;;;35.50;30.00;;;;;18.18;69.94;101700.53;5090513;27;45402;-77
2023/06/02 06:59:50;;;;;;;;;27.00;25.00;;;;;18.26;69.73;101715.63;5096371;27;46985;-78
2023/06/02 07:02:15;;;;;;;;;24.50;23.75;;;;;18.36;69.58;101704.88;5062964;27;57784;-76
2023/06/02 07:04:40;;;;;;;;;26.00;24.75;;;;;18.45;69.26;101703.03;5087105;27;45581;-77
2023/06/02 07:07:06;;;;;;;;;24.75;22.00;;;;;18.49;69.08;101702.09;5090990;27;45466;-76
2023/06/02 07:09:31;;;;;;;;;31.25;27.25;;;;;18.58;68.93;101707.34;5094282;27;62855;-77
2023/06/02 07:11:57;;;;;;;;;28.75;26.50;;;;;18.65;68.88;101701.97;5091246;27;63958;-75
2023/06/02 07:14:22;;;;;;;;;27.25;24.25;;;;;18.71;68.77;101702.84;5090480;27;45656;-77
2023/06/02 07:16:53;;;;;;;;;29.25;25.25;;;;;18.79;68.31;101698.28;5086751;27;45519;-76
2023/06/02 07:19:19;;;;;;;;;24.75;23.00;;;;;18.86;68.55;101703.63;5089927;27;45408;-77
2023/06/02 07:21:44;;;;;;;;;24.75;23.50;;;;;18.90;67.53;101700.88;5092917;27;47321;-77
2023/06/02 07:24:10;;;;;;;;;26.50;25.25;;;;;18.91;67.56;101693.72;5083816;27;65776;-78
2023/06/02 07:26:35;;;;;;;;;26.25;24.00;;;;;18.92;67.59;101693.75;5086220;27;61445;-77
2023/06/02 07:29:00;;;;;;;;;22.75;21.00;;;;;19.01;67.42;101696.31;5088059;27;46459;-76
2023/06/02 07:31:26;;;;;;;;;24.50;23.25;;;;;19.14;67.40;101688.16;5090392;27;46485;-77
2023/06/02 07:33:51;;;;;;;;;30.75;23.00;;;;;19.20;67.58;101682.75;5092382;27;54854;-77
2023/06/02 07:36:17;;;;;;;;;28.50;24.25;;;;;19.29;66.55;101691.56;5084615;27;45401;-77
2023/06/02 07:38:43;;;;;;;;;22.00;21.00;;;;;19.34;66.36;101697.75;5090087;27;58338;-77
2023/06/02 07:41:08;;;;;;;;;27.50;22.00;;;;;19.36;65.67;101698.59;5071654;27;47534;-79
2023/06/02 07:43:34;;;;;;;;;21.75;18.50;;;;;19.24;65.47;101689.84;5090255;27;68351;-77
2023/06/02 07:45:59;;;;;;;;;19.50;17.25;;;;;19.12;65.64;101701.53;5093837;27;45585;-78
2023/06/02 07:48:25;;;;;;;;;21.00;17.50;;;;;19.02;65.52;101699.88;5090403;27;45682;-79
2023/06/02 07:50:50;;;;;;;;;19.00;17.00;;;;;18.93;65.75;101697.28;5090829;27;45875;-76
2023/06/02 07:53:15;;;;;;;;;20.00;17.00;;;;;18.82;65.22;101686.69;5089763;27;62450;-77
2023/06/02 07:55:41;;;;;;;;;18.00;16.75;;;;;18.71;65.36;101692.16;5092391;27;62089;-79
2023/06/02 07:58:08;;;;;;;;;22.00;20.75;;;;;18.58;65.11;101696.66;5091960;27;61525;-76
2023/06/02 08:00:33;;;;;;;;;18.75;18.00;;;;;18.41;65.50;101695.91;5075304;27;47944;-76
2023/06/02 08:02:59;;;;;;;;;19.75;19.75;;;;;18.27;65.39;101698.72;5070847;27;45411;-77
2023/06/02 08:05:24;;;;;;;;;25.00;19.50;;;;;18.14;66.22;101705.00;5090082;27;45427;-78
2023/06/02 08:07:49;;;;;;;;;24.50;20.00;;;;;18.10;66.84;101691.66;5094723;27;45539;-75
2023/06/02 08:10:15;;;;;;;;;21.75;21.50;;;;;18.12;67.45;101693.47;5094329;27;45704;-75
2023/06/02 08:12:40;;;;;;;;;24.25;20.00;;;;;18.16;67.39;101705.00;5091596;27;63679;-77
2023/06/02 08:15:06;;;;;;;;;24.50;20.25;;;;;18.17;67.27;101694.31;5163612;22;46727;-77
2023/06/02 08:17:31;;;;;;;;;24.50;22.50;;;;;18.24;67.94;101690.69;5037291;28;45647;-79
2023/06/02 08:20:00;;;;;;;;;20.75;20.50;;;;;18.31;68.04;101692.41;5035230;28;45423;-78
2023/06/02 08:22:27;;;;;;;;;18.75;18.00;;;;;18.40;67.43;101694.16;5036682;28;45566;-80
2023/06/02 08:24:53;;;;;;;;;21.00;17.25;;;;;18.49;67.53;101699.44;5029138;28;45459;-77
2023/06/02 08:27:20;;;;;;;;;19.00;18.00;;;;;18.53;67.36;101681.56;5032901;28;45598;-77
2023/06/02 08:29:46;;;;;;;;;24.00;20.25;;;;;18.60;66.98;101691.31;5036075;28;47965;-78
2023/06/02 08:32:11;;;;;;;;;22.50;17.50;;;;;18.63;66.78;101679.69;5035804;28;45354;-80
2023/06/02 08:34:37;;;;;;;;;25.25;23.00;;;;;18.64;67.37;101686.81;5031376;28;60441;-76
2023/06/02 08:37:03;;;;;;;;;23.75;17.25;;;;;18.66;66.98;101690.38;5036575;28;45512;-77
2023/06/02 08:39:29;;;;;;;;;18.25;17.75;;;;;18.62;66.74;101691.28;5031642;28;45331;-78
2023/06/02 08:42:01;;;;;;;;;27.50;21.50;;;;;18.57;65.96;101691.31;5013254;28;45476;-81
2023/06/02 08:44:29;;;;;;;;;24.50;23.25;;;;;18.51;66.89;101678.91;5031219;28;45348;-78
2023/06/02 08:46:55;;;;;;;;;25.25;22.25;;;;;18.50;66.70;101685.16;5036508;28;45658;-77
2023/06/02 08:49:22;;;;;;;;;21.00;18.25;;;;;18.52;66.49;101683.34;5015740;28;47646;-77
2023/06/02 08:51:52;;;;;;;;;20.50;19.25;;;;;18.56;66.35;101678.88;5039086;28;45491;-79
2023/06/02 08:54:20;;;;;;;;;20.00;17.75;;;;;18.61;66.79;101693.09;5008534;28;45541;-76
2023/06/02 08:56:46;;;;;;;;;20.50;18.00;;;;;18.66;65.70;101677.88;5031237;28;45721;-77
2023/06/02 08:59:11;;;;;;;;;22.25;19.00;;;;;18.71;67.21;101678.75;5024528;28;47400;-77
2023/06/02 09:01:41;;;;;;;;;22.00;21.75;;;;;18.78;66.99;101669.78;5027202;28;70458;-77
2023/06/02 09:04:06;;;;;;;;;27.00;22.75;;;;;18.84;67.01;101669.72;5027042;28;45549;-78
2023/06/02 09:06:32;;;;;;;;;23.50;21.75;;;;;18.92;66.84;101669.66;5032747;28;61884;-76
2023/06/02 09:09:00;;;;;;;;;22.75;22.25;;;;;19.00;66.97;101675.78;5031831;28;66583;-77
2023/06/02 09:11:26;;;;;;;;;20.00;18.00;;;;;19.06;66.94;101665.03;5031105;28;45436;-76
2023/06/02 09:13:53;;;;;;;;;22.75;21.00;;;;;19.14;66.94;101672.97;5029111;28;45910;-77
2023/06/02 09:16:20;;;;;;;;;23.75;22.25;;;;;19.20;66.78;101680.06;5036153;28;45380;-76
2023/06/02 09:18:59;;;;;;;;;28.00;27.00;;;;;19.25;66.53;101678.22;5034701;28;46615;-77
2023/06/02 09:21:27;;;;;;;;;26.00;22.00;;;;;19.21;65.67;101666.66;5034102;28;45509;-78
2023/06/02 09:23:53;;;;;;;;;20.75;18.75;;;;;19.18;65.42;101677.41;5030795;28;45546;-85
2023/06/02 09:26:26;;;;;;;;;21.25;20.00;;;;;19.11;65.42;101667.66;5033864;28;45461;-81
2023/06/02 09:29:13;;;;;;;;;23.00;19.75;;;;;19.11;65.84;101673.88;5029475;28;47344;-79
2023/06/02 09:31:48;;;;;;;;;19.75;17.50;;;;;19.20;66.05;101680.94;5035592;28;45466;-78
2023/06/02 09:34:14;;;;;;;;;19.67;18.00;;;;;19.30;65.63;101679.94;5036095;28;45636;-83
2023/06/02 09:36:40;;;;;;;;;18.75;15.25;;;;;19.35;64.93;101678.09;5032028;28;45650;-81
2023/06/02 09:39:06;;;;;;;;;20.33;20.00;;;;;19.43;65.08;101674.44;5023222;28;47433;-80
2023/06/02 09:41:32;;;;;;;;;17.67;17.67;;;;;19.47;65.54;101669.03;5034540;28;45533;-77
2023/06/02 09:43:58;;;;;;;;;27.25;24.00;;;;;19.50;65.36;101666.31;5044518;28;45443;-80
2023/06/02 09:46:23;;;;;;;;;22.00;19.75;;;;;19.58;64.99;101667.09;5030711;28;45684;-78
2023/06/02 09:48:56;;;;;;;;;24.00;19.75;;;;;19.63;64.85;101667.94;5030262;28;47213;-77
2023/06/02 09:51:25;;;;;;;;;18.50;18.50;;;;;19.63;65.14;101669.75;5034133;28;45430;-78
2023/06/02 09:53:51;;;;;;;;;22.00;18.25;;;;;19.67;64.83;101674.16;5031108;28;45528;-79
2023/06/02 09:56:19;;;;;;;;;23.00;19.67;;;;;19.73;64.99;101663.38;5032726;28;45526;-82
2023/06/02 09:58:45;;;;;;;;;19.33;16.00;;;;;19.75;65.00;101666.00;5029753;28;46301;-80
2023/06/02 10:01:11;;;;;;;;;22.67;19.67;;;;;19.80;64.84;101665.03;5029459;28;45529;-78
2023/06/02 10:03:37;;;;;;;;;19.33;18.33;;;;;19.87;65.33;101666.75;5031014;28;45930;-79
2023/06/02 10:06:36;;;;;;;;;21.00;20.00;;;;;19.85;64.56;101665.88;5032205;28;63157;-78
2023/06/02 10:09:38;;;;;;;;;21.00;19.33;;;;;19.88;64.93;101678.34;5029233;28;46805;-81
2023/06/02 10:12:13;;;;;;;;;18.00;16.33;;;;;19.95;64.85;101677.34;5029882;28;45872;-80
2023/06/02 10:15:05;;;;;;;;;20.67;16.67;;;;;20.07;64.90;101663.75;5037495;28;45539;-80
2023/06/02 10:17:31;;;;;;;;;23.25;20.00;;;;;20.18;64.19;101670.75;5028741;28;45754;-80
2023/06/02 10:20:26;;;;;;;;;18.00;15.33;;;;;20.17;63.18;101666.31;5032886;28;47524;-76
2023/06/02 10:22:57;;;;;;;;;19.33;17.00;;;;;20.16;63.63;101657.38;5015642;28;45464;-82
2023/06/02 10:25:41;;;;;;;;;20.67;15.00;;;;;20.23;63.96;101652.78;5035920;28;45397;-76
2023/06/02 10:28:08;;;;;;;;;16.00;16.00;;;;;20.32;63.76;101653.53;5034656;28;45699;-75
2023/06/02 10:30:35;;;;;;;;;20.67;17.67;;;;;20.36;62.67;101651.69;5019709;28;47390;-73
2023/06/02 10:33:00;;;;;;;;;20.67;17.00;;;;;20.38;63.16;101658.81;5035041;28;45341;-75
2023/06/02 10:35:56;;;;;;;;;16.00;14.67;;;;;20.44;62.79;101656.94;5016014;28;45504;-76
2023/06/02 10:38:31;;;;;;;;;16.33;13.33;;;;;20.48;62.91;101650.66;5029665;28;45618;-77
2023/06/02 10:40:58;;;;;;;;;28.25;24.00;;;;;20.50;62.64;101648.81;5033545;28;47637;-76
2023/06/02 10:43:23;;;;;;;;;127.75;95.25;;;;;20.58;62.17;101652.25;5035249;28;45913;-78
2023/06/02 10:45:49;;;;;;;;;87.25;68.75;;;;;20.60;61.77;101650.41;5036995;28;45288;-77
2023/06/02 10:48:40;;;;;;;;;45.75;36.25;;;;;20.64;62.22;101641.41;5028655;28;45458;-75
2023/06/02 10:51:07;;;;;;;;;17.00;15.00;;;;;20.69;61.80;101647.59;5030394;28;47028;-77
2023/06/02 10:53:32;;;;;;;;;14.33;14.00;;;;;20.79;61.52;101648.31;5038386;28;45502;-76
2023/06/02 10:56:35;;;;;;;;;18.00;18.00;;;;;20.90;62.74;101638.25;5033664;28;62779;-77
2023/06/02 10:59:02;;;;;;;;;18.00;15.67;;;;;21.01;61.75;101647.00;5032949;28;45487;-77
2023/06/02 11:01:46;;;;;;;;;14.67;12.67;;;;;21.07;60.79;101645.97;5012324;28;46270;-78
2023/06/02 11:04:38;;;;;;;;;16.33;15.67;;;;;21.16;60.94;101649.38;5037473;28;45491;-79
2023/06/02 11:07:25;;;;;;;;;14.00;14.00;;;;;21.26;60.35;101638.47;5032701;28;46042;-78
2023/06/02 11:09:55;;;;;;;;;15.67;11.67;;;;;21.35;60.31;101638.28;5033603;28;45326;-77